Time;durP1;ratioP1;P1;durP2;ratioP2;P2;SDS_P1;SDS_P2;PMS_P1;PMS_P2;Temp;Humidity;BMP_temperature;BMP_pressure;BME280_temperature;BME280_humidity;BME280_pressure;Samples;Min_cycle;Max_cycle;Signal;HPM_P1;HPM_P2
2023/10/06 00:02:08;;;;;;;2.80;1.55;;;23.10;59.80;;;;;;6092742;23;87109;-85
2023/10/06 00:04:38;;;;;;;1.63;1.30;;;23.10;60.00;;;;;;6133679;23;86887;-84
2023/10/06 00:07:07;;;;;;;2.80;1.83;;;23.10;59.80;;;;;;6107221;23;89153;-84
2023/10/06 00:09:43;;;;;;;2.10;1.40;;;23.10;59.80;;;;;;6133531;23;87803;-85
2023/10/06 00:12:13;;;;;;;1.67;1.23;;;23.10;59.70;;;;;;6132234;23;87804;-84
2023/10/06 00:14:39;;;;;;;1.90;1.40;;;23.10;60.00;;;;;;6130493;23;89381;-85
2023/10/06 00:17:15;;;;;;;1.65;1.38;;;23.00;60.00;;;;;;6132288;23;87429;-83
2023/10/06 00:19:42;;;;;;;2.25;1.40;;;23.00;60.00;;;;;;6105955;23;89813;-83
2023/10/06 00:24:50;;;;;;;2.08;1.50;;;23.00;59.90;;;;;;6131967;23;89279;-84
2023/10/06 00:27:20;;;;;;;2.72;1.38;;;23.00;59.90;;;;;;6131754;23;88632;-84
2023/10/06 00:30:28;;;;;;;2.13;1.15;;;23.00;59.80;;;;;;6105864;23;88515;-84
2023/10/06 00:32:55;;;;;;;1.45;1.27;;;23.00;60.00;;;;;;6134275;23;87258;-84
2023/10/06 00:35:23;;;;;;;1.77;1.38;;;23.00;60.00;;;;;;6106670;23;87672;-84
2023/10/06 00:37:57;;;;;;;2.10;1.50;;;23.00;60.00;;;;;;6132028;23;89176;-84
2023/10/06 00:40:25;;;;;;;2.70;1.65;;;22.90;60.00;;;;;;6129640;23;89507;-87
2023/10/06 00:42:52;;;;;;;2.03;1.52;;;23.00;59.90;;;;;;6104348;23;88228;-84
2023/10/06 00:45:17;;;;;;;2.30;1.42;;;23.00;60.10;;;;;;6130984;23;87228;-84
2023/10/06 00:47:43;;;;;;;1.42;1.10;;;23.00;60.10;;;;;;6104686;23;90466;-84
2023/10/06 00:50:12;;;;;;;1.75;1.13;;;22.90;60.10;;;;;;6128739;23;90816;-84
2023/10/06 00:53:00;;;;;;;2.03;1.30;;;22.90;60.40;;;;;;6104258;23;87448;-86
2023/10/06 00:55:29;;;;;;;1.20;1.10;;;22.90;60.00;;;;;;6128788;23;87620;-86
2023/10/06 00:57:54;;;;;;;2.05;1.52;;;22.90;60.10;;;;;;6133632;23;87187;-85
2023/10/06 01:00:21;;;;;;;2.05;1.67;;;22.90;60.00;;;;;;6129446;23;91822;-85
2023/10/06 01:02:50;;;;;;;1.42;1.10;;;22.90;60.20;;;;;;6104643;23;87889;-88
2023/10/06 01:05:16;;;;;;;1.58;1.30;;;22.90;60.20;;;;;;6103954;23;88419;-84
2023/10/06 01:07:46;;;;;;;1.45;1.35;;;22.80;60.10;;;;;;6128864;23;89077;-84
2023/10/06 01:10:34;;;;;;;2.17;1.50;;;22.80;60.10;;;;;;6103850;23;88591;-92
2023/10/06 01:13:12;;;;;;;2.90;1.52;;;22.90;60.20;;;;;;6095466;23;88280;-89
2023/10/06 01:15:55;;;;;;;1.90;1.50;;;22.80;59.90;;;;;;6132163;23;90371;-84
2023/10/06 01:18:24;;;;;;;2.47;1.70;;;22.80;60.20;;;;;;6131396;23;88081;-83
2023/10/06 01:20:50;;;;;;;;;;;22.80;60.20;;;;;;6131053;23;88988;-85
2023/10/06 01:23:22;;;;;;;2.05;1.35;;;22.80;60.10;;;;;;6107682;23;87370;-84
2023/10/06 01:26:24;;;;;;;1.88;1.38;;;22.80;60.20;;;;;;6131934;23;88034;-84
2023/10/06 01:28:51;;;;;;;2.25;1.40;;;22.80;60.30;;;;;;6104053;23;92339;-86
2023/10/06 01:31:19;;;;;;;1.50;1.25;;;22.80;60.30;;;;;;6131663;23;88658;-85
2023/10/06 01:33:45;;;;;;;2.25;1.40;;;22.80;60.30;;;;;;6105658;23;87266;-84
2023/10/06 01:36:13;;;;;;;2.45;1.42;;;22.80;60.20;;;;;;6104401;23;87648;-85
2023/10/06 01:38:43;;;;;;;2.53;1.02;;;22.80;60.20;;;;;;6130592;23;88056;-84
2023/10/06 01:41:10;;;;;;;1.50;1.17;;;22.80;60.30;;;;;;6128897;23;89874;-85
2023/10/06 01:43:38;;;;;;;2.45;1.38;;;22.80;60.30;;;;;;6131519;23;87285;-83
2023/10/06 01:46:07;;;;;;;1.50;1.40;;;22.70;60.40;;;;;;6133028;23;87662;-85
2023/10/06 01:48:33;;;;;;;2.35;1.38;;;22.70;61.10;;;;;;6128165;23;88100;-90
2023/10/06 01:50:59;;;;;;;1.65;1.30;;;22.70;60.60;;;;;;6133286;23;88187;-86
2023/10/06 01:53:55;;;;;;;2.13;1.50;;;22.70;60.30;;;;;;6131260;23;88216;-91
2023/10/06 01:56:22;;;;;;;2.00;1.50;;;22.70;60.40;;;;;;6129448;23;88345;-84
2023/10/06 01:58:51;;;;;;;1.90;1.40;;;22.70;60.20;;;;;;6129099;23;89870;-88
2023/10/06 02:01:29;;;;;;;2.35;1.40;;;22.70;60.40;;;;;;6132943;23;87310;-87
2023/10/06 02:03:54;;;;;;;2.33;1.50;;;22.70;60.40;;;;;;6105852;23;87718;-85
2023/10/06 02:06:25;;;;;;;1.58;1.30;;;22.70;60.40;;;;;;6132407;23;89311;-87
2023/10/06 02:08:52;;;;;;;1.63;1.20;;;22.70;60.30;;;;;;6131309;23;87640;-86
2023/10/06 02:11:24;;;;;;;2.47;1.58;;;22.70;60.40;;;;;;6105862;23;87509;-84
2023/10/06 02:13:53;;;;;;;2.03;1.25;;;22.70;60.40;;;;;;6132185;23;87197;-84
2023/10/06 02:16:23;;;;;;;2.03;1.60;;;22.60;60.10;;;;;;6104417;23;90667;-88
2023/10/06 02:18:54;;;;;;;1.75;1.27;;;22.70;60.20;;;;;;6130389;23;91276;-85
2023/10/06 02:21:28;;;;;;;1.40;1.30;;;22.70;60.40;;;;;;6128512;23;89485;-86
2023/10/06 02:24:01;;;;;;;1.63;1.27;;;22.60;60.40;;;;;;6104801;23;87359;-85
2023/10/06 02:26:26;;;;;;;2.13;1.20;;;22.60;60.50;;;;;;6129724;23;87761;-84
2023/10/06 02:28:54;;;;;;;1.42;1.13;;;22.60;60.30;;;;;;6129564;23;89664;-85
2023/10/06 02:31:22;;;;;;;2.20;1.33;;;22.60;60.20;;;;;;6132469;23;87266;-90
2023/10/06 02:33:49;;;;;;;1.80;1.23;;;22.60;60.30;;;;;;6106077;23;87396;-85
2023/10/06 02:36:17;;;;;;;1.38;1.00;;;22.60;60.40;;;;;;6105528;23;87454;-86
2023/10/06 02:38:50;;;;;;;1.97;1.30;;;22.60;60.40;;;;;;6103943;23;90648;-85
2023/10/06 02:41:23;;;;;;;2.47;1.38;;;22.60;60.60;;;;;;6130415;23;87197;-84
2023/10/06 02:43:52;;;;;;;1.40;1.10;;;22.60;60.40;;;;;;6101798;23;89103;-85
2023/10/06 02:46:23;;;;;;;1.25;1.15;;;22.60;60.40;;;;;;6087364;23;90762;-88
2023/10/06 02:48:49;;;;;;;2.03;1.40;;;22.60;60.50;;;;;;6103951;23;89492;-84
2023/10/06 02:51:30;;;;;;;1.50;1.10;;;22.60;60.40;;;;;;6128105;22;88806;-87
2023/10/06 02:54:09;;;;;;;3.42;1.40;;;22.60;60.50;;;;;;6126896;23;86886;-89
2023/10/06 02:56:35;;;;;;;2.67;1.45;;;22.60;60.50;;;;;;6102320;23;91338;-86
2023/10/06 02:59:15;;;;;;;1.33;1.17;;;22.60;61.20;;;;;;6102492;23;89889;-84
2023/10/06 03:01:44;;;;;;;1.92;1.30;;;22.60;60.50;;;;;;6104788;23;90045;-85
2023/10/06 03:04:28;;;;;;;1.27;1.08;;;22.60;61.30;;;;;;6131587;23;87146;-83
2023/10/06 03:06:56;;;;;;;1.52;1.05;;;22.60;60.50;;;;;;6105255;23;92987;-83
2023/10/06 03:12:27;;;;;;;1.50;1.20;;;22.60;60.40;;;;;;6097036;23;91218;-84
2023/10/06 03:14:54;;;;;;;1.73;1.27;;;22.60;60.40;;;;;;6132732;23;86835;-86
2023/10/06 03:17:30;;;;;;;1.10;1.00;;;22.50;60.40;;;;;;6106039;23;88937;-84
2023/10/06 03:20:08;;;;;;;1.77;1.30;;;22.50;60.50;;;;;;6105718;23;90209;-83
2023/10/06 03:22:40;;;;;;;1.55;1.20;;;22.50;60.40;;;;;;6132705;23;87647;-84
2023/10/06 03:25:15;;;;;;;1.63;1.10;;;22.50;60.50;;;;;;6107041;23;87247;-84
2023/10/06 03:27:41;;;;;;;2.25;1.05;;;22.50;60.50;;;;;;6131740;23;93150;-86
2023/10/06 03:30:13;;;;;;;1.40;1.10;;;22.50;60.40;;;;;;6105086;23;90077;-86
2023/10/06 03:32:39;;;;;;;1.45;1.30;;;22.50;60.60;;;;;;6130008;23;89682;-86
2023/10/06 03:35:17;;;;;;;1.33;1.20;;;22.50;60.50;;;;;;6132084;23;87845;-84
2023/10/06 03:40:42;;;;;;;2.03;1.52;;;22.50;60.40;;;;;;6102476;23;87939;-85
2023/10/06 03:43:12;;;;;;;1.77;1.10;;;22.50;60.40;;;;;;6107050;23;88998;-84
2023/10/06 03:45:54;;;;;;;1.45;1.20;;;22.50;60.20;;;;;;6106975;23;87319;-85
2023/10/06 03:48:24;;;;;;;1.35;1.20;;;22.50;60.40;;;;;;6132307;23;86868;-84
2023/10/06 03:50:49;;;;;;;2.63;1.30;;;22.50;60.30;;;;;;6132754;23;87834;-85
2023/10/06 03:53:15;;;;;;;1.48;1.20;;;22.50;60.30;;;;;;6104873;23;92358;-84
2023/10/06 03:55:42;;;;;;;1.98;1.50;;;22.50;60.30;;;;;;6130706;23;87073;-85
2023/10/06 03:58:17;;;;;;;1.98;1.20;;;22.40;60.20;;;;;;6133770;23;87155;-84
2023/10/06 04:00:49;;;;;;;1.45;1.13;;;22.40;60.30;;;;;;6130876;23;93922;-86
2023/10/06 04:03:17;;;;;;;2.75;1.30;;;22.40;60.40;;;;;;6103083;23;90563;-83
2023/10/06 04:05:52;;;;;;;1.67;1.25;;;22.40;60.20;;;;;;6126452;23;87259;-88
2023/10/06 04:08:23;;;;;;;1.52;1.13;;;22.40;60.30;;;;;;6100381;23;90522;-88
2023/10/06 04:10:54;;;;;;;2.25;1.27;;;22.40;60.10;;;;;;6126866;23;87721;-89
2023/10/06 04:13:20;;;;;;;2.03;1.20;;;22.40;59.90;;;;;;6099227;23;91106;-87
2023/10/06 04:15:49;;;;;;;2.13;1.23;;;22.40;60.10;;;;;;6128829;23;86927;-87
2023/10/06 04:18:17;;;;;;;1.40;1.10;;;22.40;60.10;;;;;;6125293;23;88760;-87
2023/10/06 04:20:44;;;;;;;1.20;1.03;;;22.40;60.00;;;;;;6128132;23;88155;-86
2023/10/06 04:23:14;;;;;;;1.35;1.20;;;22.40;60.10;;;;;;6102078;23;89416;-86
2023/10/06 04:25:42;;;;;;;2.17;1.23;;;22.40;60.20;;;;;;6128830;23;87797;-88
2023/10/06 04:28:11;;;;;;;1.35;1.13;;;22.40;60.20;;;;;;6130533;23;87928;-84
2023/10/06 04:30:37;;;;;;;1.38;1.15;;;22.40;60.40;;;;;;6101370;23;89812;-86
2023/10/06 04:33:04;;;;;;;2.10;1.40;;;22.40;60.10;;;;;;6129886;22;89171;-85
2023/10/06 04:35:33;;;;;;;1.67;1.30;;;22.40;60.10;;;;;;6128891;23;86927;-88
2023/10/06 04:38:05;;;;;;;2.33;1.38;;;22.40;60.00;;;;;;6101209;23;87820;-86
2023/10/06 04:40:32;;;;;;;2.38;1.48;;;22.40;60.20;;;;;;6128416;23;88599;-84
2023/10/06 04:43:01;;;;;;;1.35;1.25;;;22.40;60.20;;;;;;6104876;23;89716;-84
2023/10/06 04:45:32;;;;;;;1.77;1.27;;;22.40;60.10;;;;;;6104016;23;87293;-87
2023/10/06 04:48:00;;;;;;;1.17;1.00;;;22.40;60.40;;;;;;6104080;23;88534;-89
2023/10/06 04:50:28;;;;;;;1.35;1.02;;;22.40;60.00;;;;;;6087669;23;90429;-84
2023/10/06 04:52:54;;;;;;;1.27;1.15;;;22.40;60.10;;;;;;6128644;23;90458;-84
2023/10/06 04:55:21;;;;;;;1.45;1.30;;;22.40;60.10;;;;;;6131304;23;86883;-86
2023/10/06 04:57:49;;;;;;;1.75;1.40;;;22.30;60.10;;;;;;6105090;23;90586;-84
2023/10/06 05:00:19;;;;;;;1.38;1.13;;;22.40;59.90;;;;;;6130402;23;90160;-88
2023/10/06 05:02:47;;;;;;;1.75;1.30;;;22.40;60.00;;;;;;6129479;23;88403;-84
2023/10/06 05:05:23;;;;;;;1.30;1.20;;;22.40;60.10;;;;;;6104555;23;87121;-84
2023/10/06 05:07:51;;;;;;;1.10;1.00;;;22.30;60.10;;;;;;6131685;23;87984;-84
2023/10/06 05:10:27;;;;;;;1.45;1.27;;;22.40;60.20;;;;;;6103221;23;91032;-83
2023/10/06 05:12:53;;;;;;;1.13;1.02;;;22.30;60.10;;;;;;6104398;23;88317;-86
2023/10/06 05:15:23;;;;;;;2.03;1.40;;;22.30;60.10;;;;;;6128674;23;88760;-87
2023/10/06 05:17:56;;;;;;;1.20;1.05;;;22.30;60.00;;;;;;6102631;23;88481;-88
2023/10/06 05:20:42;;;;;;;1.33;1.20;;;22.40;59.90;;;;;;6128658;23;87911;-85
2023/10/06 05:23:14;;;;;;;1.50;1.20;;;22.30;60.10;;;;;;6126482;23;89197;-90
2023/10/06 05:25:41;;;;;;;1.30;1.20;;;22.30;60.10;;;;;;6103300;23;87167;-87
2023/10/06 05:28:10;;;;;;;2.55;1.20;;;22.30;60.10;;;;;;6128633;23;87554;-84
2023/10/06 05:30:37;;;;;;;2.58;1.48;;;22.30;60.10;;;;;;6101788;23;89718;-91
2023/10/06 05:33:03;;;;;;;1.40;1.20;;;22.30;60.10;;;;;;6101629;23;88502;-85
2023/10/06 05:35:38;;;;;;;1.55;1.25;;;22.30;60.00;;;;;;6103051;23;86902;-85
2023/10/06 05:38:14;;;;;;;1.83;1.30;;;22.30;60.10;;;;;;6104121;23;90783;-84
2023/10/06 05:40:49;;;;;;;1.13;1.02;;;22.30;60.00;;;;;;6102380;23;90419;-90
2023/10/06 05:43:18;;;;;;;1.45;1.35;;;22.30;60.10;;;;;;6102447;23;89339;-87
2023/10/06 05:45:51;;;;;;;1.42;1.10;;;22.30;60.00;;;;;;6130197;23;87253;-84
2023/10/06 05:48:20;;;;;;;2.08;1.25;;;22.30;60.10;;;;;;6130680;23;87442;-86
2023/10/06 05:50:48;;;;;;;1.55;1.10;;;22.30;60.10;;;;;;6103024;23;88793;-84
2023/10/06 05:53:22;;;;;;;1.65;1.00;;;22.30;60.00;;;;;;6101976;23;91403;-84
2023/10/06 05:55:49;;;;;;;1.58;1.17;;;22.20;59.90;;;;;;6103284;23;87258;-87
2023/10/06 05:58:27;;;;;;;1.58;1.00;;;22.30;60.10;;;;;;6103377;23;88744;-89
2023/10/06 06:00:56;;;;;;;1.52;1.15;;;22.30;60.00;;;;;;6102081;23;90483;-84
2023/10/06 06:03:23;;;;;;;2.13;1.30;;;22.30;60.10;;;;;;6127179;23;88539;-85
2023/10/06 06:06:04;;;;;;;1.77;1.20;;;22.30;60.00;;;;;;6101451;23;89105;-84
2023/10/06 06:08:30;;;;;;;1.73;1.27;;;22.20;60.00;;;;;;6130176;23;87403;-85
2023/10/06 06:10:58;;;;;;;1.10;1.00;;;22.20;60.10;;;;;;6130016;23;88325;-88
2023/10/06 06:13:25;;;;;;;1.17;0.82;;;22.20;59.90;;;;;;6128317;23;90183;-86
2023/10/06 06:16:07;;;;;;;1.20;1.10;;;22.20;59.90;;;;;;6103640;23;86951;-87
2023/10/06 06:18:34;;;;;;;1.13;1.02;;;22.20;60.00;;;;;;6128517;23;89643;-84
2023/10/06 06:21:03;;;;;;;1.20;1.00;;;22.20;59.90;;;;;;6102127;23;90024;-84
2023/10/06 06:23:35;;;;;;;1.70;1.15;;;22.20;60.00;;;;;;6129034;23;87117;-84
2023/10/06 06:28:17;;;;;;;1.58;1.20;;;22.20;60.40;;;;;;5028654;27;86105;-87
2023/10/06 06:30:47;;;;;;;1.33;1.08;;;22.20;60.30;;;;;;4976983;28;86113;-83
2023/10/06 06:33:17;;;;;;;1.35;1.15;;;22.20;60.10;;;;;;4980222;28;85851;-84
2023/10/06 06:35:43;;;;;;;2.35;1.27;;;22.20;60.40;;;;;;4978531;28;87425;-83
2023/10/06 06:38:13;;;;;;;1.60;1.20;;;22.20;60.20;;;;;;5012086;28;88381;-84
2023/10/06 06:40:41;;;;;;;;;;;22.20;60.20;;;;;;4982951;28;86178;-84
2023/10/06 06:43:09;;;;;;;1.30;1.00;;;22.20;60.00;;;;;;4983448;28;86012;-83
2023/10/06 06:45:39;;;;;;;1.20;1.10;;;22.20;60.20;;;;;;4992235;28;87929;-85
2023/10/06 06:48:19;;;;;;;1.00;0.90;;;22.20;60.00;;;;;;4989017;28;87498;-83
2023/10/06 06:50:48;;;;;;;1.35;1.20;;;22.20;60.30;;;;;;5006443;28;86171;-84
2023/10/06 06:53:14;;;;;;;2.87;1.30;;;22.20;60.10;;;;;;4979577;28;85719;-84
2023/10/06 06:55:39;;;;;;;1.35;1.17;;;22.20;60.20;;;;;;4998704;27;86894;-84
2023/10/06 06:58:08;;;;;;;0.80;0.80;;;22.20;60.20;;;;;;4998574;28;89892;-86
2023/10/06 07:00:39;;;;;;;1.50;1.20;;;22.20;60.10;;;;;;5011924;27;85701;-83
2023/10/06 07:03:06;;;;;;;1.63;1.10;;;22.20;60.00;;;;;;4994370;28;85676;-87
2023/10/06 07:05:34;;;;;;;1.55;1.05;;;22.20;60.00;;;;;;4987582;28;86978;-84
2023/10/06 07:08:03;;;;;;;1.10;0.98;;;22.20;60.00;;;;;;4978845;28;87029;-87
2023/10/06 07:10:29;;;;;;;;;;;22.20;59.80;;;;;;5017844;28;86077;-86
2023/10/06 07:13:02;;;;;;;1.58;1.10;;;22.20;60.80;;;;;;4984438;28;85567;-90
2023/10/06 07:15:29;;;;;;;1.85;1.20;;;22.20;60.20;;;;;;5015373;28;88408;-90
2023/10/06 07:17:59;;;;;;;1.90;1.33;;;22.20;60.50;;;;;;4995614;28;88270;-92
2023/10/06 07:20:29;;;;;;;2.30;1.38;;;22.30;60.90;;;;;;5012117;28;85583;-89
2023/10/06 07:22:56;;;;;;;3.10;1.60;;;22.30;60.30;;;;;;4988438;28;86103;-85
2023/10/06 07:25:24;;;;;;;1.90;1.40;;;22.30;58.70;;;;;;4973233;28;87621;-86
2023/10/06 07:27:52;;;;;;;3.05;1.33;;;22.30;59.40;;;;;;4985840;28;86099;-86
2023/10/06 07:30:22;;;;;;;3.83;1.60;;;22.30;59.60;;;;;;4997821;28;85661;-83
2023/10/06 07:32:48;;;;;;;3.40;1.67;;;22.30;59.60;;;;;;4988006;28;85806;-84
2023/10/06 07:35:17;;;;;;;1.70;1.20;;;22.30;59.40;;;;;;5013785;28;88431;-83
2023/10/06 07:37:44;;;;;;;3.40;1.70;;;22.40;59.90;;;;;;4995161;28;86450;-86
2023/10/06 07:40:14;;;;;;;5.72;1.30;;;22.30;60.00;;;;;;5001024;28;85726;-88
2023/10/06 07:42:44;;;;;;;2.95;1.58;;;22.30;60.00;;;;;;4963720;28;86882;-85
2023/10/06 07:45:11;;;;;;;4.68;1.75;;;22.40;60.00;;;;;;4980498;28;89285;-85
2023/10/06 07:47:42;;;;;;;3.80;1.42;;;22.40;59.60;;;;;;4975731;28;86281;-85
2023/10/06 07:50:15;;;;;;;3.22;1.50;;;22.40;59.90;;;;;;4967107;28;85728;-86
2023/10/06 07:53:19;;;;;;;3.53;1.40;;;22.40;60.00;;;;;;4948295;28;86394;-85
2023/10/06 07:55:45;;;;;;;5.50;1.65;;;22.40;60.00;;;;;;4974727;28;89746;-85
2023/10/06 07:58:10;;;;;;;2.17;1.45;;;22.40;59.80;;;;;;4966635;28;88482;-83
2023/10/06 08:00:38;;;;;;;3.25;1.83;;;22.40;59.80;;;;;;4997200;28;86275;-87
2023/10/06 08:03:04;;;;;;;2.42;1.67;;;22.50;59.70;;;;;;5001449;28;86035;-85
2023/10/06 08:05:42;;;;;;;3.03;1.63;;;22.50;59.70;;;;;;4987510;28;86962;-86
2023/10/06 08:08:08;;;;;;;6.28;1.67;;;22.50;59.60;;;;;;4979887;28;86316;-87
2023/10/06 08:10:49;;;;;;;6.32;1.77;;;22.50;59.60;;;;;;4968916;28;85777;-85
2023/10/06 08:13:15;;;;;;;3.97;1.50;;;22.50;59.50;;;;;;4985671;28;85558;-85
2023/10/06 08:15:44;;;;;;;3.13;1.67;;;22.50;59.70;;;;;;4985522;28;87008;-82
2023/10/06 08:18:12;;;;;;;5.70;1.70;;;22.50;59.50;;;;;;4981829;28;86980;-84
2023/10/06 08:20:40;;;;;;;4.55;1.80;;;22.50;59.50;;;;;;4983120;28;88758;-86
2023/10/06 08:23:07;;;;;;;3.00;1.70;;;22.50;59.80;;;;;;4983257;28;86100;-85
2023/10/06 08:25:33;;;;;;;4.05;1.83;;;22.50;59.60;;;;;;4980600;27;87661;-86
2023/10/06 08:28:04;;;;;;;4.50;2.20;;;22.60;58.90;;;;;;4962806;28;89602;-84
2023/10/06 08:30:32;;;;;;;5.15;2.05;;;22.60;58.90;;;;;;4991204;28;85691;-84
2023/10/06 08:33:02;;;;;;;4.93;2.17;;;22.60;58.70;;;;;;4963952;28;86255;-84
2023/10/06 08:35:28;;;;;;;7.07;2.15;;;22.60;59.60;;;;;;4976195;28;86798;-82
2023/10/06 08:37:57;;;;;;;5.32;1.77;;;22.60;59.40;;;;;;4981648;28;88353;-83
2023/10/06 08:40:26;;;;;;;5.40;2.30;;;22.60;59.30;;;;;;4983858;28;89524;-83
2023/10/06 08:42:53;;;;;;;7.22;2.03;;;22.60;59.20;;;;;;4998717;28;86086;-83
2023/10/06 08:45:21;;;;;;;11.27;2.22;;;22.60;58.80;;;;;;4976924;28;86856;-82
2023/10/06 08:47:49;;;;;;;10.25;2.60;;;22.60;57.70;;;;;;4997050;28;89043;-83
2023/10/06 08:50:31;;;;;;;11.05;3.08;;;22.60;58.10;;;;;;5006255;28;85684;-83
2023/10/06 08:52:58;;;;;;;7.88;3.28;;;22.60;58.10;;;;;;4983590;28;86568;-84
2023/10/06 08:55:27;;;;;;;7.40;2.83;;;22.60;58.00;;;;;;4982581;27;87440;-85
2023/10/06 08:57:54;;;;;;;5.63;2.40;;;22.60;58.10;;;;;;4963191;28;88699;-85
2023/10/06 09:00:26;;;;;;;7.93;2.97;;;22.60;58.10;;;;;;4982118;28;86124;-84
2023/10/06 09:02:54;;;;;;;9.23;3.08;;;22.60;57.10;;;;;;4956062;28;86026;-88
2023/10/06 09:05:21;;;;;;;6.13;2.67;;;22.60;56.60;;;;;;4974847;28;86823;-84
2023/10/06 09:08:05;;;;;;;6.65;2.88;;;22.60;57.00;;;;;;4984789;28;85888;-84
2023/10/06 09:10:34;;;;;;;9.48;2.55;;;22.60;57.20;;;;;;5016297;28;86134;-83
2023/10/06 09:13:04;;;;;;;8.70;2.80;;;22.60;57.70;;;;;;5003009;28;85511;-85
2023/10/06 09:15:31;;;;;;;5.65;2.55;;;22.60;57.80;;;;;;4982179;28;89178;-83
2023/10/06 09:17:57;;;;;;;6.68;2.85;;;22.60;57.80;;;;;;4981422;28;86428;-83
2023/10/06 09:20:37;;;;;;;6.22;2.30;;;22.60;57.70;;;;;;4995961;28;85730;-84
2023/10/06 09:23:32;;;;;;;7.90;2.35;;;22.60;57.10;;;;;;4996715;28;89308;-82
2023/10/06 09:25:58;;;;;;;9.75;3.53;;;22.60;57.60;;;;;;4994704;28;88658;-83
2023/10/06 09:28:24;;;;;;;13.77;3.83;;;22.60;56.70;;;;;;4996181;28;87017;-83
2023/10/06 09:31:10;;;;;;;8.90;3.40;;;22.60;56.20;;;;;;4982787;28;86101;-84
2023/10/06 09:33:36;;;;;;;9.70;2.95;;;22.60;56.20;;;;;;4997737;28;86295;-83
2023/10/06 09:36:02;;;;;;;11.25;4.38;;;22.60;56.20;;;;;;4983252;28;87996;-85
2023/10/06 09:38:32;;;;;;;8.43;2.88;;;22.60;56.40;;;;;;4985217;28;88327;-84
2023/10/06 09:40:59;;;;;;;11.43;3.42;;;22.60;56.30;;;;;;4984773;28;86670;-87
2023/10/06 09:43:25;;;;;;;9.77;2.70;;;22.60;56.10;;;;;;4982591;28;85940;-85
2023/10/06 09:45:57;;;;;;;13.02;3.63;;;22.60;56.30;;;;;;4984402;28;86749;-85
2023/10/06 09:48:25;;;;;;;12.93;4.38;;;22.60;56.40;;;;;;4998583;28;86457;-85
2023/10/06 09:50:54;;;;;;;10.38;3.70;;;22.60;55.90;;;;;;4982355;28;86422;-86
2023/10/06 09:53:21;;;;;;;7.30;3.53;;;22.70;56.10;;;;;;4983344;28;85752;-84
2023/10/06 09:55:50;;;;;;;8.82;2.95;;;22.60;56.20;;;;;;4998473;28;88977;-84
2023/10/06 09:58:19;;;;;;;11.07;3.40;;;22.60;56.40;;;;;;4981485;28;86636;-85
2023/10/06 10:00:45;;;;;;;9.77;3.20;;;22.60;56.60;;;;;;4981818;28;87975;-85
2023/10/06 10:03:15;;;;;;;10.45;3.53;;;22.60;56.70;;;;;;4983240;28;85769;-86
2023/10/06 10:05:53;;;;;;;6.72;2.97;;;22.60;56.80;;;;;;4998815;28;88465;-86
2023/10/06 10:08:22;;;;;;;4.97;2.87;;;22.60;56.80;;;;;;4982629;28;87259;-86
2023/10/06 10:10:55;;;;;;;5.95;2.85;;;22.60;56.70;;;;;;4983777;28;85820;-86
2023/10/06 10:13:32;;;;;;;7.45;3.45;;;22.60;56.90;;;;;;4979317;27;86071;-90
2023/10/06 10:16:25;;;;;;;6.93;3.28;;;22.70;57.10;;;;;;4963476;28;87717;-87
2023/10/06 10:19:22;;;;;;;7.88;3.03;;;22.60;57.20;;;;;;4982260;28;93793;-86
2023/10/06 10:21:49;;;;;;;6.50;2.92;;;22.70;57.20;;;;;;4972764;28;86982;-85
2023/10/06 10:24:20;;;;;;;10.02;3.17;;;22.70;57.30;;;;;;4960640;28;86039;-83
2023/10/06 10:26:52;;;;;;;8.98;3.08;;;22.70;57.20;;;;;;4957838;28;90230;-82
2023/10/06 10:29:18;;;;;;;8.40;3.50;;;22.70;57.30;;;;;;4953887;28;88060;-82
2023/10/06 10:32:14;;;;;;;4.80;2.33;;;22.70;57.60;;;;;;4964518;28;86004;-81
2023/10/06 10:35:16;;;;;;;10.48;3.35;;;22.70;57.60;;;;;;4983829;28;86155;-81
2023/10/06 10:38:02;;;;;;;17.75;5.10;;;22.70;57.70;;;;;;4956134;28;88799;-84
2023/10/06 10:40:46;;;;;;;33.20;8.88;;;22.70;57.70;;;;;;4984756;28;87634;-84
2023/10/06 10:43:14;;;;;;;38.03;9.57;;;22.70;57.70;;;;;;4956753;28;86415;-83
2023/10/06 10:45:44;;;;;;;25.95;8.95;;;22.70;57.70;;;;;;4956530;28;86568;-82
2023/10/06 10:48:15;;;;;;;29.25;8.75;;;22.70;57.60;;;;;;4971017;28;87731;-83
2023/10/06 10:50:52;;;;;;;29.88;9.20;;;22.70;57.70;;;;;;4988537;28;87057;-83
2023/10/06 10:53:21;;;;;;;30.95;8.32;;;22.70;57.80;;;;;;4966198;28;86174;-82
2023/10/06 10:55:48;;;;;;;28.87;8.37;;;22.70;57.80;;;;;;4982035;28;85958;-81
2023/10/06 10:58:41;;;;;;;25.38;7.90;;;22.70;57.70;;;;;;4990769;28;88638;-81
2023/10/06 11:01:37;;;;;;;26.70;9.07;;;22.70;57.90;;;;;;4976423;28;86390;-81
2023/10/06 11:04:21;;;;;;;27.67;9.02;;;22.70;57.90;;;;;;5008582;28;88507;-82
2023/10/06 11:06:48;;;;;;;28.08;9.02;;;22.70;57.80;;;;;;4974689;28;88610;-81
2023/10/06 11:09:36;;;;;;;26.08;8.50;;;22.70;57.90;;;;;;4976296;28;87253;-83
2023/10/06 11:12:05;;;;;;;28.40;8.50;;;22.70;58.00;;;;;;4956773;28;89077;-82
2023/10/06 11:14:38;;;;;;;26.35;8.65;;;22.70;58.00;;;;;;4958384;28;86218;-81
2023/10/06 11:17:05;;;;;;;29.50;8.48;;;22.70;57.90;;;;;;4949267;28;86337;-81
2023/10/06 11:19:36;;;;;;;25.92;8.90;;;22.70;58.00;;;;;;4960596;28;87394;-83
2023/10/06 11:22:19;;;;;;;31.27;9.57;;;22.70;58.00;;;;;;4965891;28;85920;-81
2023/10/06 11:24:46;;;;;;;26.90;7.97;;;22.70;58.00;;;;;;4956245;28;86789;-82
2023/10/06 11:27:17;;;;;;;25.92;8.65;;;22.70;58.00;;;;;;4973663;28;86431;-81
2023/10/06 11:29:46;;;;;;;29.88;9.43;;;22.70;58.00;;;;;;4963498;28;89378;-83
2023/10/06 11:32:13;;;;;;;21.80;7.93;;;22.70;58.10;;;;;;4957593;28;87302;-81
2023/10/06 11:34:41;;;;;;;27.67;8.70;;;22.70;58.00;;;;;;4964175;28;86145;-81
2023/10/06 11:37:08;;;;;;;21.92;7.50;;;22.70;58.00;;;;;;4997047;28;85815;-82
2023/10/06 11:39:35;;;;;;;25.63;9.25;;;22.70;58.00;;;;;;4992102;28;90423;-82
2023/10/06 11:42:29;;;;;;;31.58;8.43;;;22.70;58.10;;;;;;4973195;28;90334;-82
2023/10/06 11:44:57;;;;;;;20.73;8.07;;;22.70;58.10;;;;;;4949248;28;85674;-82
2023/10/06 11:47:26;;;;;;;27.13;8.00;;;22.70;58.00;;;;;;4961362;28;86469;-82
2023/10/06 11:49:58;;;;;;;28.45;8.57;;;22.70;58.00;;;;;;4960663;28;87425;-82
2023/10/06 11:52:25;;;;;;;28.20;8.63;;;22.70;58.20;;;;;;4959987;28;88153;-84
2023/10/06 11:54:51;;;;;;;21.92;8.07;;;22.70;58.10;;;;;;4984202;28;86017;-85
2023/10/06 11:57:19;;;;;;;22.67;7.72;;;22.70;58.70;;;;;;4996144;28;86183;-84
2023/10/06 11:59:51;;;;;;;30.52;9.38;;;22.70;58.00;;;;;;4970125;28;88464;-81
2023/10/06 12:02:19;;;;;;;19.13;6.82;;;22.70;58.00;;;;;;4982914;28;86877;-82
2023/10/06 12:04:44;;;;;;;26.13;7.65;;;22.70;57.90;;;;;;4979480;28;85726;-82
2023/10/06 12:07:26;;;;;;;21.95;7.50;;;22.70;58.10;;;;;;4967795;28;85895;-84
2023/10/06 12:10:06;;;;;;;21.42;8.48;;;22.70;58.00;;;;;;4955851;28;92219;-83
2023/10/06 12:12:32;;;;;;;24.77;7.95;;;22.70;58.10;;;;;;4956949;28;86487;-86
2023/10/06 12:14:59;;;;;;;27.42;8.13;;;22.70;58.20;;;;;;4967472;28;86005;-82
2023/10/06 12:17:37;;;;;;;21.40;8.05;;;22.80;58.30;;;;;;4967599;28;86198;-82
2023/10/06 12:20:13;;;;;;;26.77;8.23;;;22.70;58.40;;;;;;4966080;28;86413;-83
2023/10/06 12:22:43;;;;;;;27.55;9.00;;;22.70;58.40;;;;;;4973390;28;87553;-85
2023/10/06 12:25:23;;;;;;;22.25;8.70;;;22.80;58.40;;;;;;4953797;28;85988;-84
2023/10/06 12:27:49;;;;;;;20.27;7.47;;;22.70;58.30;;;;;;4976586;28;86394;-83
2023/10/06 12:30:17;;;;;;;21.65;7.65;;;22.70;58.30;;;;;;4968693;28;88474;-87
2023/10/06 12:32:45;;;;;;;20.50;7.07;;;22.70;58.30;;;;;;4966567;28;86496;-84
2023/10/06 12:35:11;;;;;;;24.60;8.25;;;22.70;58.20;;;;;;4972097;28;85627;-82
2023/10/06 12:37:41;;;;;;;28.85;7.78;;;22.80;58.40;;;;;;4998081;28;85983;-83
2023/10/06 12:40:19;;;;;;;21.25;8.57;;;22.70;58.40;;;;;;4967491;28;86018;-81
2023/10/06 12:42:49;;;;;;;22.73;8.45;;;22.80;58.40;;;;;;4970856;28;86837;-84
2023/10/06 12:45:23;;;;;;;22.02;7.57;;;22.80;58.40;;;;;;5003913;28;86143;-82
2023/10/06 12:47:52;;;;;;;25.02;8.05;;;22.70;58.40;;;;;;4986391;28;85649;-82
2023/10/06 12:50:23;;;;;;;19.70;8.00;;;22.70;58.40;;;;;;4985233;28;88670;-82
2023/10/06 12:52:53;;;;;;;21.58;7.35;;;22.80;58.40;;;;;;4985579;28;88465;-82
2023/10/06 12:55:28;;;;;;;26.15;8.90;;;22.80;58.50;;;;;;4965152;28;85745;-82
2023/10/06 12:57:54;;;;;;;24.67;7.85;;;22.80;58.40;;;;;;4966688;28;85616;-82
2023/10/06 13:00:22;;;;;;;24.63;7.95;;;22.80;58.50;;;;;;4985964;28;85868;-83
2023/10/06 13:02:51;;;;;;;24.33;8.30;;;22.80;58.20;;;;;;4987328;28;86692;-86
2023/10/06 13:05:22;;;;;;;20.65;7.75;;;22.80;58.10;;;;;;4985279;28;85807;-83
2023/10/06 13:07:51;;;;;;;24.05;7.65;;;22.80;58.30;;;;;;4990086;28;85918;-84
2023/10/06 13:10:22;;;;;;;22.20;7.93;;;22.80;58.20;;;;;;4987103;28;86586;-83
2023/10/06 13:12:48;;;;;;;18.38;7.03;;;22.80;58.20;;;;;;4986321;28;86031;-82
2023/10/06 13:15:18;;;;;;;21.48;7.05;;;22.80;58.20;;;;;;4996429;28;85877;-84
2023/10/06 13:17:51;;;;;;;16.05;6.25;;;22.80;58.10;;;;;;4965871;28;85939;-84